sensor_id;sensor_type;location;lat;lon;timestamp;pressure;altitude;pressure_sealevel;temperature;humidity
48053;BME280;33824;51.600;5.718;2022-12-07T00:00:30;101659.25;;;4.61;98.21
48053;BME280;33824;51.600;5.718;2022-12-07T00:03:08;101650.72;;;4.57;97.90
48053;BME280;33824;51.600;5.718;2022-12-07T00:05:34;101652.28;;;4.49;97.92
48053;BME280;33824;51.600;5.718;2022-12-07T00:07:59;101650.81;;;4.45;98.47
48053;BME280;33824;51.600;5.718;2022-12-07T00:10:25;101647.56;;;4.41;98.33
48053;BME280;33824;51.600;5.718;2022-12-07T00:12:51;101650.78;;;4.33;98.74
48053;BME280;33824;51.600;5.718;2022-12-07T00:15:16;101653.53;;;4.32;99.46
48053;BME280;33824;51.600;5.718;2022-12-07T00:17:42;101649.94;;;4.33;99.22
48053;BME280;33824;51.600;5.718;2022-12-07T00:20:08;101647.28;;;4.33;99.26
48053;BME280;33824;51.600;5.718;2022-12-07T00:22:34;101649.19;;;4.31;99.43
48053;BME280;33824;51.600;5.718;2022-12-07T00:24:59;101636.22;;;4.28;99.99
48053;BME280;33824;51.600;5.718;2022-12-07T00:27:26;101638.72;;;4.18;99.49
48053;BME280;33824;51.600;5.718;2022-12-07T00:29:52;101638.44;;;4.10;99.98
48053;BME280;33824;51.600;5.718;2022-12-07T00:32:18;101631.38;;;4.11;100.00
48053;BME280;33824;51.600;5.718;2022-12-07T00:34:43;101628.94;;;4.08;100.00
48053;BME280;33824;51.600;5.718;2022-12-07T00:37:09;101629.69;;;4.10;100.00
48053;BME280;33824;51.600;5.718;2022-12-07T00:39:34;101632.19;;;4.11;100.00
48053;BME280;33824;51.600;5.718;2022-12-07T00:42:00;101625.13;;;4.12;100.00
48053;BME280;33824;51.600;5.718;2022-12-07T00:44:25;101628.81;;;4.09;100.00
48053;BME280;33824;51.600;5.718;2022-12-07T00:46:51;101627.97;;;4.09;100.00
48053;BME280;33824;51.600;5.718;2022-12-07T00:49:16;101628.44;;;4.03;100.00
48053;BME280;33824;51.600;5.718;2022-12-07T00:51:42;101626.75;;;4.02;100.00
48053;BME280;33824;51.600;5.718;2022-12-07T00:54:07;101625.06;;;4.01;100.00
48053;BME280;33824;51.600;5.718;2022-12-07T00:56:33;101622.41;;;4.01;100.00
48053;BME280;33824;51.600;5.718;2022-12-07T00:59:03;101626.13;;;3.98;100.00
48053;BME280;33824;51.600;5.718;2022-12-07T01:01:32;101623.88;;;4.05;100.00
48053;BME280;33824;51.600;5.718;2022-12-07T01:03:58;101621.63;;;4.11;100.00
48053;BME280;33824;51.600;5.718;2022-12-07T01:06:27;101613.38;;;4.16;100.00
48053;BME280;33824;51.600;5.718;2022-12-07T01:08:53;101622.03;;;4.18;100.00
48053;BME280;33824;51.600;5.718;2022-12-07T01:11:24;101615.78;;;4.19;100.00
48053;BME280;33824;51.600;5.718;2022-12-07T01:13:55;101619.78;;;4.24;100.00
48053;BME280;33824;51.600;5.718;2022-12-07T01:16:22;101630.00;;;4.29;100.00
48053;BME280;33824;51.600;5.718;2022-12-07T01:18:49;101635.03;;;4.32;100.00
48053;BME280;33824;51.600;5.718;2022-12-07T01:21:36;101624.53;;;4.19;99.59
48053;BME280;33824;51.600;5.718;2022-12-07T01:24:09;101628.50;;;4.14;99.87
48053;BME280;33824;51.600;5.718;2022-12-07T01:26:35;101628.97;;;4.19;100.00
48053;BME280;33824;51.600;5.718;2022-12-07T01:29:01;101633.78;;;4.14;100.00
48053;BME280;33824;51.600;5.718;2022-12-07T01:31:27;101628.59;;;4.12;100.00
48053;BME280;33824;51.600;5.718;2022-12-07T01:33:55;101628.59;;;4.12;100.00
48053;BME280;33824;51.600;5.718;2022-12-07T01:36:41;101627.75;;;4.12;99.89
48053;BME280;33824;51.600;5.718;2022-12-07T01:39:07;101642.03;;;4.09;99.88
48053;BME280;33824;51.600;5.718;2022-12-07T01:41:39;101623.78;;;4.06;99.53
48053;BME280;33824;51.600;5.718;2022-12-07T01:46:54;101626.38;;;3.95;100.00
48053;BME280;33824;51.600;5.718;2022-12-07T01:52:12;101628.25;;;3.93;99.85
48053;BME280;33824;51.600;5.718;2022-12-07T01:54:39;101625.75;;;3.92;100.00
48053;BME280;33824;51.600;5.718;2022-12-07T01:57:06;101622.13;;;3.93;99.97
48053;BME280;33824;51.600;5.718;2022-12-07T01:59:32;101622.88;;;3.95;99.84
48053;BME280;33824;51.600;5.718;2022-12-07T02:01:57;101623.00;;;3.93;100.00
48053;BME280;33824;51.600;5.718;2022-12-07T02:04:23;101621.44;;;3.91;100.00
48053;BME280;33824;51.600;5.718;2022-12-07T02:06:50;101622.28;;;3.91;100.00
48053;BME280;33824;51.600;5.718;2022-12-07T02:09:16;101617.00;;;3.91;100.00
48053;BME280;33824;51.600;5.718;2022-12-07T02:11:41;101618.78;;;3.91;100.00
48053;BME280;33824;51.600;5.718;2022-12-07T02:14:07;101626.94;;;3.88;100.00
48053;BME280;33824;51.600;5.718;2022-12-07T02:16:38;101617.31;;;3.86;100.00
48053;BME280;33824;51.600;5.718;2022-12-07T02:22:26;101618.44;;;3.71;100.00
48053;BME280;33824;51.600;5.718;2022-12-07T02:25:33;101616.34;;;3.64;99.88
48053;BME280;33824;51.600;5.718;2022-12-07T02:28:07;101624.66;;;3.70;100.00
48053;BME280;33824;51.600;5.718;2022-12-07T02:30:42;101624.88;;;3.67;99.48
48053;BME280;33824;51.600;5.718;2022-12-07T02:33:14;101620.47;;;3.68;99.46
48053;BME280;33824;51.600;5.718;2022-12-07T02:36:13;101623.13;;;3.55;99.91
48053;BME280;33824;51.600;5.718;2022-12-07T02:38:58;101620.50;;;3.55;99.51
48053;BME280;33824;51.600;5.718;2022-12-07T02:41:31;101621.09;;;3.59;99.92
48053;BME280;33824;51.600;5.718;2022-12-07T02:44:04;101623.13;;;3.55;99.96
48053;BME280;33824;51.600;5.718;2022-12-07T02:46:35;101612.72;;;3.54;100.00
48053;BME280;33824;51.600;5.718;2022-12-07T02:49:03;101605.22;;;3.48;99.96
48053;BME280;33824;51.600;5.718;2022-12-07T02:51:31;101613.03;;;3.49;100.00
48053;BME280;33824;51.600;5.718;2022-12-07T02:53:58;101604.81;;;3.54;100.00
48053;BME280;33824;51.600;5.718;2022-12-07T03:05:13;101617.56;;;3.47;100.00
48053;BME280;33824;51.600;5.718;2022-12-07T03:10:36;101618.09;;;3.52;100.00
48053;BME280;33824;51.600;5.718;2022-12-07T03:13:24;101623.06;;;3.44;100.00
48053;BME280;33824;51.600;5.718;2022-12-07T03:16:02;101614.59;;;3.52;100.00
48053;BME280;33824;51.600;5.718;2022-12-07T03:18:31;101615.84;;;3.59;100.00
48053;BME280;33824;51.600;5.718;2022-12-07T03:21:01;101617.31;;;3.63;100.00
48053;BME280;33824;51.600;5.718;2022-12-07T03:23:29;101617.22;;;3.64;100.00
48053;BME280;33824;51.600;5.718;2022-12-07T03:26:00;101616.13;;;3.67;100.00
48053;BME280;33824;51.600;5.718;2022-12-07T03:28:31;101614.56;;;3.64;100.00
48053;BME280;33824;51.600;5.718;2022-12-07T03:31:05;101616.34;;;3.64;100.00
48053;BME280;33824;51.600;5.718;2022-12-07T03:33:49;101614.88;;;3.60;100.00
48053;BME280;33824;51.600;5.718;2022-12-07T03:36:27;101617.63;;;3.58;100.00
48053;BME280;33824;51.600;5.718;2022-12-07T03:38:59;101618.38;;;3.60;100.00
48053;BME280;33824;51.600;5.718;2022-12-07T03:41:30;101615.19;;;3.68;100.00
48053;BME280;33824;51.600;5.718;2022-12-07T03:43:57;101609.34;;;3.75;100.00
48053;BME280;33824;51.600;5.718;2022-12-07T03:49:32;101608.50;;;3.75;100.00
48053;BME280;33824;51.600;5.718;2022-12-07T03:55:20;101604.50;;;3.69;100.00
48053;BME280;33824;51.600;5.718;2022-12-07T03:57:48;101602.16;;;3.54;100.00
48053;BME280;33824;51.600;5.718;2022-12-07T04:00:15;101600.38;;;3.78;100.00
48053;BME280;33824;51.600;5.718;2022-12-07T04:02:42;101599.25;;;3.93;100.00
48053;BME280;33824;51.600;5.718;2022-12-07T04:05:09;101595.00;;;4.03;100.00
48053;BME280;33824;51.600;5.718;2022-12-07T04:07:35;101600.50;;;4.11;100.00
48053;BME280;33824;51.600;5.718;2022-12-07T04:10:01;101605.44;;;4.16;100.00
48053;BME280;33824;51.600;5.718;2022-12-07T04:12:26;101603.16;;;4.11;100.00
48053;BME280;33824;51.600;5.718;2022-12-07T04:14:52;101599.47;;;4.14;100.00
48053;BME280;33824;51.600;5.718;2022-12-07T04:17:17;101606.53;;;4.13;100.00
48053;BME280;33824;51.600;5.718;2022-12-07T04:19:43;101607.25;;;4.15;100.00
48053;BME280;33824;51.600;5.718;2022-12-07T04:22:08;101609.72;;;4.29;100.00
48053;BME280;33824;51.600;5.718;2022-12-07T04:24:34;101608.69;;;4.19;100.00
48053;BME280;33824;51.600;5.718;2022-12-07T04:27:00;101603.31;;;4.21;100.00
48053;BME280;33824;51.600;5.718;2022-12-07T04:29:26;101606.69;;;4.23;100.00
48053;BME280;33824;51.600;5.718;2022-12-07T04:32:13;101590.41;;;4.29;100.00
48053;BME280;33824;51.600;5.718;2022-12-07T04:34:39;101596.63;;;4.28;100.00
48053;BME280;33824;51.600;5.718;2022-12-07T04:37:05;101595.34;;;4.33;99.79
48053;BME280;33824;51.600;5.718;2022-12-07T04:39:32;101606.38;;;4.39;100.00
48053;BME280;33824;51.600;5.718;2022-12-07T04:41:59;101612.88;;;4.46;100.00
48053;BME280;33824;51.600;5.718;2022-12-07T04:44:26;101600.28;;;4.49;100.00
48053;BME280;33824;51.600;5.718;2022-12-07T04:46:52;101605.09;;;4.55;99.51
48053;BME280;33824;51.600;5.718;2022-12-07T04:49:19;101602.47;;;4.55;99.13
48053;BME280;33824;51.600;5.718;2022-12-07T04:51:45;101592.13;;;4.52;98.89
48053;BME280;33824;51.600;5.718;2022-12-07T04:54:12;101593.91;;;4.41;99.19
48053;BME280;33824;51.600;5.718;2022-12-07T04:56:37;101588.13;;;4.35;98.95
48053;BME280;33824;51.600;5.718;2022-12-07T04:59:03;101584.13;;;4.30;98.67
48053;BME280;33824;51.600;5.718;2022-12-07T05:01:29;101585.56;;;4.23;98.62
48053;BME280;33824;51.600;5.718;2022-12-07T05:03:55;101590.34;;;4.18;98.66
48053;BME280;33824;51.600;5.718;2022-12-07T05:06:21;101584.47;;;4.14;98.74
48053;BME280;33824;51.600;5.718;2022-12-07T05:08:47;101581.44;;;4.08;98.91
48053;BME280;33824;51.600;5.718;2022-12-07T05:11:13;101584.53;;;4.02;98.69
48053;BME280;33824;51.600;5.718;2022-12-07T05:14:00;101590.38;;;3.94;99.23
48053;BME280;33824;51.600;5.718;2022-12-07T05:16:25;101588.91;;;3.90;99.82
48053;BME280;33824;51.600;5.718;2022-12-07T05:18:51;101586.38;;;3.88;99.94
48053;BME280;33824;51.600;5.718;2022-12-07T05:21:17;101584.09;;;3.84;100.00
48053;BME280;33824;51.600;5.718;2022-12-07T05:23:43;101587.56;;;3.84;100.00
48053;BME280;33824;51.600;5.718;2022-12-07T05:26:09;101596.22;;;3.86;100.00
48053;BME280;33824;51.600;5.718;2022-12-07T05:28:34;101590.09;;;3.86;100.00
48053;BME280;33824;51.600;5.718;2022-12-07T05:31:00;101590.19;;;3.84;100.00
48053;BME280;33824;51.600;5.718;2022-12-07T05:33:25;101589.25;;;3.85;100.00
48053;BME280;33824;51.600;5.718;2022-12-07T05:35:51;101593.81;;;3.83;100.00
48053;BME280;33824;51.600;5.718;2022-12-07T05:38:17;101591.03;;;3.85;100.00
48053;BME280;33824;51.600;5.718;2022-12-07T05:40:42;101590.44;;;3.81;100.00
48053;BME280;33824;51.600;5.718;2022-12-07T05:43:08;101585.38;;;3.78;100.00
48053;BME280;33824;51.600;5.718;2022-12-07T05:45:33;101592.34;;;3.79;100.00
48053;BME280;33824;51.600;5.718;2022-12-07T05:47:59;101596.44;;;3.83;100.00
48053;BME280;33824;51.600;5.718;2022-12-07T05:50:24;101592.22;;;3.81;100.00
48053;BME280;33824;51.600;5.718;2022-12-07T05:52:50;101589.38;;;3.84;100.00
48053;BME280;33824;51.600;5.718;2022-12-07T05:55:15;101580.72;;;3.82;100.00
48053;BME280;33824;51.600;5.718;2022-12-07T05:57:41;101580.94;;;3.79;100.00
48053;BME280;33824;51.600;5.718;2022-12-07T06:00:26;101577.56;;;3.77;100.00
48053;BME280;33824;51.600;5.718;2022-12-07T06:02:52;101579.41;;;3.76;100.00
48053;BME280;33824;51.600;5.718;2022-12-07T06:05:17;101576.84;;;3.75;99.84
48053;BME280;33824;51.600;5.718;2022-12-07T06:07:45;101577.19;;;3.70;100.00
48053;BME280;33824;51.600;5.718;2022-12-07T06:10:10;101569.72;;;3.64;100.00
48053;BME280;33824;51.600;5.718;2022-12-07T06:12:36;101576.66;;;3.65;100.00
48053;BME280;33824;51.600;5.718;2022-12-07T06:15:03;101572.84;;;3.69;100.00
48053;BME280;33824;51.600;5.718;2022-12-07T06:17:29;101577.19;;;3.70;100.00
48053;BME280;33824;51.600;5.718;2022-12-07T06:19:55;101576.66;;;3.65;100.00
48053;BME280;33824;51.600;5.718;2022-12-07T06:22:20;101570.59;;;3.65;100.00
48053;BME280;33824;51.600;5.718;2022-12-07T06:24:46;101567.09;;;3.64;100.00
48053;BME280;33824;51.600;5.718;2022-12-07T06:27:12;101570.91;;;3.60;99.66
48053;BME280;33824;51.600;5.718;2022-12-07T06:29:37;101584.31;;;3.57;99.50
48053;BME280;33824;51.600;5.718;2022-12-07T06:32:03;101584.41;;;3.56;99.50
48053;BME280;33824;51.600;5.718;2022-12-07T06:34:28;101579.88;;;3.58;99.50
48053;BME280;33824;51.600;5.718;2022-12-07T06:36:54;101579.25;;;3.54;99.69
48053;BME280;33824;51.600;5.718;2022-12-07T06:39:27;101589.41;;;3.48;99.44
48053;BME280;33824;51.600;5.718;2022-12-07T06:41:54;101582.34;;;3.48;99.50
48053;BME280;33824;51.600;5.718;2022-12-07T06:44:20;101575.53;;;3.33;99.64
48053;BME280;33824;51.600;5.718;2022-12-07T06:46:47;101581.44;;;3.24;100.00
48053;BME280;33824;51.600;5.718;2022-12-07T06:49:13;101586.53;;;3.27;100.00
48053;BME280;33824;51.600;5.718;2022-12-07T06:51:39;101584.59;;;3.29;100.00
48053;BME280;33824;51.600;5.718;2022-12-07T06:54:10;101589.25;;;3.25;100.00
48053;BME280;33824;51.600;5.718;2022-12-07T06:56:37;101581.75;;;3.32;100.00
48053;BME280;33824;51.600;5.718;2022-12-07T06:59:03;101587.78;;;3.34;100.00
48053;BME280;33824;51.600;5.718;2022-12-07T07:01:31;101587.88;;;3.32;100.00
48053;BME280;33824;51.600;5.718;2022-12-07T07:03:56;101586.63;;;3.25;100.00
48053;BME280;33824;51.600;5.718;2022-12-07T07:06:22;101581.66;;;3.21;100.00
48053;BME280;33824;51.600;5.718;2022-12-07T07:08:47;101585.25;;;3.20;100.00
48053;BME280;33824;51.600;5.718;2022-12-07T07:11:13;101580.09;;;3.18;100.00
48053;BME280;33824;51.600;5.718;2022-12-07T07:13:38;101583.69;;;3.17;100.00
48053;BME280;33824;51.600;5.718;2022-12-07T07:16:05;101590.41;;;3.21;100.00
48053;BME280;33824;51.600;5.718;2022-12-07T07:18:30;101589.34;;;3.24;100.00
48053;BME280;33824;51.600;5.718;2022-12-07T07:20:56;101589.25;;;3.25;100.00
48053;BME280;33824;51.600;5.718;2022-12-07T07:23:22;101588.19;;;3.28;100.00
48053;BME280;33824;51.600;5.718;2022-12-07T07:25:48;101587.25;;;3.29;100.00
48053;BME280;33824;51.600;5.718;2022-12-07T07:28:14;101586.16;;;3.31;100.00
48053;BME280;33824;51.600;5.718;2022-12-07T07:30:40;101593.97;;;3.33;100.00
48053;BME280;33824;51.600;5.718;2022-12-07T07:33:06;101599.16;;;3.34;100.00
48053;BME280;33824;51.600;5.718;2022-12-07T07:35:33;101592.19;;;3.33;100.00
48053;BME280;33824;51.600;5.718;2022-12-07T07:38:00;101595.53;;;3.35;100.00
48053;BME280;33824;51.600;5.718;2022-12-07T07:40:26;101588.81;;;3.31;100.00
48053;BME280;33824;51.600;5.718;2022-12-07T07:42:53;101593.25;;;3.31;100.00
48053;BME280;33824;51.600;5.718;2022-12-07T07:45:21;101592.41;;;3.30;100.00
48053;BME280;33824;51.600;5.718;2022-12-07T07:47:47;101596.63;;;3.33;100.00
48053;BME280;33824;51.600;5.718;2022-12-07T07:50:14;101594.69;;;3.35;100.00
48053;BME280;33824;51.600;5.718;2022-12-07T07:52:39;101599.97;;;3.35;100.00
48053;BME280;33824;51.600;5.718;2022-12-07T07:55:06;101603.59;;;3.34;100.00
48053;BME280;33824;51.600;5.718;2022-12-07T07:57:34;101601.03;;;3.32;100.00
48053;BME280;33824;51.600;5.718;2022-12-07T08:00:01;101600.09;;;3.33;100.00
48053;BME280;33824;51.600;5.718;2022-12-07T08:02:26;101602.84;;;3.32;100.00
48053;BME280;33824;51.600;5.718;2022-12-07T08:04:55;101593.97;;;3.33;100.00
48053;BME280;33824;51.600;5.718;2022-12-07T08:07:20;101608.63;;;3.37;100.00
48053;BME280;33824;51.600;5.718;2022-12-07T08:09:46;101612.50;;;3.44;100.00
48053;BME280;33824;51.600;5.718;2022-12-07T08:12:12;101610.50;;;3.48;100.00
48053;BME280;33824;51.600;5.718;2022-12-07T08:14:37;101606.91;;;3.49;100.00
48053;BME280;33824;51.600;5.718;2022-12-07T08:17:03;101608.47;;;3.51;99.74
48053;BME280;33824;51.600;5.718;2022-12-07T08:19:28;101607.75;;;3.49;99.73
48053;BME280;33824;51.600;5.718;2022-12-07T08:21:54;101600.56;;;3.51;99.96
48053;BME280;33824;51.600;5.718;2022-12-07T08:24:21;101602.25;;;3.52;100.00
48053;BME280;33824;51.600;5.718;2022-12-07T08:26:47;101605.97;;;3.50;100.00
48053;BME280;33824;51.600;5.718;2022-12-07T08:29:13;101607.31;;;3.55;100.00
48053;BME280;33824;51.600;5.718;2022-12-07T08:31:39;101610.69;;;3.57;100.00
48053;BME280;33824;51.600;5.718;2022-12-07T08:34:05;101609.91;;;3.68;100.00
48053;BME280;33824;51.600;5.718;2022-12-07T08:36:30;101614.63;;;3.75;100.00
48053;BME280;33824;51.600;5.718;2022-12-07T08:38:56;101623.22;;;3.90;100.00
48053;BME280;33824;51.600;5.718;2022-12-07T08:41:21;101619.69;;;4.02;100.00
48053;BME280;33824;51.600;5.718;2022-12-07T08:43:47;101620.91;;;4.09;100.00
48053;BME280;33824;51.600;5.718;2022-12-07T08:46:23;101610.06;;;4.01;100.00
48053;BME280;33824;51.600;5.718;2022-12-07T08:48:56;101621.63;;;4.11;100.00
48053;BME280;33824;51.600;5.718;2022-12-07T08:51:23;101614.50;;;4.24;100.00
48053;BME280;33824;51.600;5.718;2022-12-07T08:53:50;101618.13;;;4.34;100.00
48053;BME280;33824;51.600;5.718;2022-12-07T08:56:17;101612.50;;;4.39;100.00
48053;BME280;33824;51.600;5.718;2022-12-07T08:58:44;101611.22;;;4.45;99.71
48053;BME280;33824;51.600;5.718;2022-12-07T09:01:09;101618.41;;;4.54;99.70
48053;BME280;33824;51.600;5.718;2022-12-07T09:03:35;101616.88;;;4.62;99.33
48053;BME280;33824;51.600;5.718;2022-12-07T09:06:01;101615.44;;;4.69;99.39
48053;BME280;33824;51.600;5.718;2022-12-07T09:08:32;101619.78;;;4.70;99.27
48053;BME280;33824;51.600;5.718;2022-12-07T09:10:58;101613.78;;;4.79;99.84
48053;BME280;33824;51.600;5.718;2022-12-07T09:13:24;101609.84;;;4.85;99.48
48053;BME280;33824;51.600;5.718;2022-12-07T09:15:49;101615.13;;;4.85;99.11
48053;BME280;33824;51.600;5.718;2022-12-07T09:18:17;101609.59;;;4.88;99.56
48053;BME280;33824;51.600;5.718;2022-12-07T09:20:42;101614.03;;;4.99;98.96
48053;BME280;33824;51.600;5.718;2022-12-07T09:23:08;101609.97;;;5.17;99.59
48053;BME280;33824;51.600;5.718;2022-12-07T09:25:34;101610.31;;;5.35;99.39
48053;BME280;33824;51.600;5.718;2022-12-07T09:28:00;101612.25;;;5.32;99.21
48053;BME280;33824;51.600;5.718;2022-12-07T09:30:26;101606.47;;;5.27;98.45
48053;BME280;33824;51.600;5.718;2022-12-07T09:32:56;101615.00;;;5.20;98.94
48053;BME280;33824;51.600;5.718;2022-12-07T09:35:23;101621.41;;;5.17;98.55
48053;BME280;33824;51.600;5.718;2022-12-07T09:37:49;101618.38;;;5.22;99.00
48053;BME280;33824;51.600;5.718;2022-12-07T09:40:16;101628.13;;;5.32;98.78
48053;BME280;33824;51.600;5.718;2022-12-07T09:42:49;101627.03;;;5.35;98.36
48053;BME280;33824;51.600;5.718;2022-12-07T09:45:20;101621.63;;;5.48;98.60
48053;BME280;33824;51.600;5.718;2022-12-07T09:47:46;101607.97;;;5.63;98.66
48053;BME280;33824;51.600;5.718;2022-12-07T09:50:14;101613.84;;;5.67;98.44
48053;BME280;33824;51.600;5.718;2022-12-07T09:52:42;101616.97;;;5.72;98.42
48053;BME280;33824;51.600;5.718;2022-12-07T09:55:12;101612.28;;;5.75;98.05
48053;BME280;33824;51.600;5.718;2022-12-07T09:57:38;101613.47;;;5.82;98.19
48053;BME280;33824;51.600;5.718;2022-12-07T10:00:12;101605.28;;;5.86;98.11
48053;BME280;33824;51.600;5.718;2022-12-07T10:02:47;101604.69;;;5.93;98.04
48053;BME280;33824;51.600;5.718;2022-12-07T10:05:20;101604.31;;;5.98;97.77
48053;BME280;33824;51.600;5.718;2022-12-07T10:07:48;101605.53;;;6.25;97.69
48053;BME280;33824;51.600;5.718;2022-12-07T10:10:17;101595.34;;;6.42;97.67
48053;BME280;33824;51.600;5.718;2022-12-07T10:12:56;101596.41;;;6.39;96.81
48053;BME280;33824;51.600;5.718;2022-12-07T10:15:22;101597.72;;;6.45;96.77
48053;BME280;33824;51.600;5.718;2022-12-07T10:17:49;101589.31;;;6.40;96.24
48053;BME280;33824;51.600;5.718;2022-12-07T10:20:17;101591.47;;;6.46;96.76
48053;BME280;33824;51.600;5.718;2022-12-07T10:22:58;101591.56;;;6.44;95.77
48053;BME280;33824;51.600;5.718;2022-12-07T10:25:30;101585.91;;;6.69;96.94
48053;BME280;33824;51.600;5.718;2022-12-07T10:30:48;101577.97;;;7.09;94.71
48053;BME280;33824;51.600;5.718;2022-12-07T10:33:28;101570.59;;;7.13;94.72
48053;BME280;33824;51.600;5.718;2022-12-07T10:35:55;101571.81;;;7.49;95.91
48053;BME280;33824;51.600;5.718;2022-12-07T10:38:21;101562.50;;;7.73;95.77
48053;BME280;33824;51.600;5.718;2022-12-07T10:40:46;101575.66;;;7.94;94.39
48053;BME280;33824;51.600;5.718;2022-12-07T10:43:16;101565.03;;;8.04;94.65
48053;BME280;33824;51.600;5.718;2022-12-07T10:46:16;101559.72;;;8.04;93.25
48053;BME280;33824;51.600;5.718;2022-12-07T10:51:46;101563.47;;;7.92;93.45
48053;BME280;33824;51.600;5.718;2022-12-07T10:57:47;101549.66;;;8.17;93.70
48053;BME280;33824;51.600;5.718;2022-12-07T11:00:21;101554.13;;;8.36;93.56
48053;BME280;33824;51.600;5.718;2022-12-07T11:03:06;101546.00;;;8.18;92.78
48053;BME280;33824;51.600;5.718;2022-12-07T11:22:00;101527.56;;;7.88;89.42
48053;BME280;33824;51.600;5.718;2022-12-07T11:30:16;101519.31;;;7.62;89.93
48053;BME280;33824;51.600;5.718;2022-12-07T11:36:07;101513.47;;;7.68;89.93
48053;BME280;33824;51.600;5.718;2022-12-07T11:38:42;101509.28;;;7.75;90.28
48053;BME280;33824;51.600;5.718;2022-12-07T11:41:09;101507.16;;;7.88;90.90
48053;BME280;33824;51.600;5.718;2022-12-07T11:43:59;101507.03;;;7.80;90.32
48053;BME280;33824;51.600;5.718;2022-12-07T11:46:47;101501.84;;;7.88;90.92
48053;BME280;33824;51.600;5.718;2022-12-07T11:49:37;101499.34;;;7.87;89.96
48053;BME280;33824;51.600;5.718;2022-12-07T11:52:14;101491.09;;;7.80;90.37
48053;BME280;33824;51.600;5.718;2022-12-07T11:54:43;101497.38;;;7.69;89.04
48053;BME280;33824;51.600;5.718;2022-12-07T11:57:20;101483.72;;;7.64;89.41
48053;BME280;33824;51.600;5.718;2022-12-07T11:59:57;101489.03;;;7.64;89.18
48053;BME280;33824;51.600;5.718;2022-12-07T12:02:31;101491.09;;;7.61;89.38
48053;BME280;33824;51.600;5.718;2022-12-07T12:05:22;101490.28;;;7.60;89.46
48053;BME280;33824;51.600;5.718;2022-12-07T12:08:11;101484.25;;;7.58;89.29
48053;BME280;33824;51.600;5.718;2022-12-07T12:19:20;101475.47;;;7.87;89.19
48053;BME280;33824;51.600;5.718;2022-12-07T12:21:54;101490.09;;;8.00;88.51
48053;BME280;33824;51.600;5.718;2022-12-07T12:24:26;101475.41;;;8.15;88.12
48053;BME280;33824;51.600;5.718;2022-12-07T12:27:03;101478.34;;;8.32;87.28
48053;BME280;33824;51.600;5.718;2022-12-07T12:29:37;101479.44;;;8.48;86.91
48053;BME280;33824;51.600;5.718;2022-12-07T12:33:12;101479.81;;;8.53;86.70
48053;BME280;33824;51.600;5.718;2022-12-07T12:35:31;101477.22;;;8.34;86.27
48053;BME280;33824;51.600;5.718;2022-12-07T12:38:25;101467.13;;;8.18;83.48
48053;BME280;33824;51.600;5.718;2022-12-07T12:40:53;101467.84;;;8.20;85.47
48053;BME280;33824;51.600;5.718;2022-12-07T12:43:48;101467.59;;;8.04;84.80
48053;BME280;33824;51.600;5.718;2022-12-07T12:51:43;101455.72;;;8.08;86.44
48053;BME280;33824;51.600;5.718;2022-12-07T12:54:14;101463.25;;;8.03;86.12
48053;BME280;33824;51.600;5.718;2022-12-07T12:56:48;101452.56;;;7.57;85.09
48053;BME280;33824;51.600;5.718;2022-12-07T13:01:49;101450.03;;;7.46;87.08
48053;BME280;33824;51.600;5.718;2022-12-07T13:04:29;101451.56;;;7.39;87.02
48053;BME280;33824;51.600;5.718;2022-12-07T13:06:56;101442.63;;;7.40;87.22
48053;BME280;33824;51.600;5.718;2022-12-07T13:09:33;101444.72;;;7.27;87.21
48053;BME280;33824;51.600;5.718;2022-12-07T13:12:05;101439.69;;;7.23;87.99
48053;BME280;33824;51.600;5.718;2022-12-07T13:17:03;101437.88;;;7.14;88.18
48053;BME280;33824;51.600;5.718;2022-12-07T13:24:56;101426.22;;;6.96;88.38
48053;BME280;33824;51.600;5.718;2022-12-07T13:27:24;101423.56;;;6.96;88.76
48053;BME280;33824;51.600;5.718;2022-12-07T13:29:56;101413.81;;;6.87;88.74
48053;BME280;33824;51.600;5.718;2022-12-07T13:32:24;101405.13;;;6.85;88.32
48053;BME280;33824;51.600;5.718;2022-12-07T13:34:51;101403.72;;;6.81;88.04
48053;BME280;33824;51.600;5.718;2022-12-07T13:37:20;101406.94;;;6.75;88.00
48053;BME280;33824;51.600;5.718;2022-12-07T13:44:47;101405.34;;;6.53;88.18
48053;BME280;33824;51.600;5.718;2022-12-07T13:47:22;101400.84;;;6.44;87.97
48053;BME280;33824;51.600;5.718;2022-12-07T13:49:53;101399.16;;;6.43;88.15
48053;BME280;33824;51.600;5.718;2022-12-07T13:52:23;101391.94;;;6.45;88.22
48053;BME280;33824;51.600;5.718;2022-12-07T13:54:55;101385.66;;;6.46;88.52
48053;BME280;33824;51.600;5.718;2022-12-07T13:57:22;101382.88;;;6.48;87.95
48053;BME280;33824;51.600;5.718;2022-12-07T13:59:50;101380.09;;;6.49;88.38
48053;BME280;33824;51.600;5.718;2022-12-07T14:02:29;101381.34;;;6.45;88.15
48053;BME280;33824;51.600;5.718;2022-12-07T14:05:16;101385.09;;;6.43;88.28
48053;BME280;33824;51.600;5.718;2022-12-07T14:08:02;101382.19;;;6.55;88.75
48053;BME280;33824;51.600;5.718;2022-12-07T14:10:34;101378.19;;;6.70;88.61
48053;BME280;33824;51.600;5.718;2022-12-07T14:13:01;101376.53;;;6.89;89.18
48053;BME280;33824;51.600;5.718;2022-12-07T14:15:33;101376.13;;;6.93;89.17
48053;BME280;33824;51.600;5.718;2022-12-07T14:18:01;101376.28;;;7.01;88.58
48053;BME280;33824;51.600;5.718;2022-12-07T14:20:36;101374.63;;;7.10;89.12
48053;BME280;33824;51.600;5.718;2022-12-07T14:23:02;101364.00;;;7.19;88.88
48053;BME280;33824;51.600;5.718;2022-12-07T14:25:48;101363.19;;;7.09;88.60
48053;BME280;33824;51.600;5.718;2022-12-07T14:28:28;101357.03;;;7.09;88.58
48053;BME280;33824;51.600;5.718;2022-12-07T14:30:55;101364.47;;;7.15;88.29
48053;BME280;33824;51.600;5.718;2022-12-07T14:33:21;101359.16;;;7.15;88.56
48053;BME280;33824;51.600;5.718;2022-12-07T14:35:47;101363.31;;;7.17;88.23
48053;BME280;33824;51.600;5.718;2022-12-07T14:38:12;101365.25;;;7.15;88.40